sensor_id;sensor_type;location;lat;lon;timestamp;P1;durP1;ratioP1;P2;durP2;ratioP2
72053;SDS011;59918;51.280;7.950;2022-07-25T00:01:57;6.60;;;6.10;;
72053;SDS011;59918;51.280;7.950;2022-07-25T00:04:22;6.93;;;6.18;;
72053;SDS011;59918;51.280;7.950;2022-07-25T00:06:47;8.35;;;6.57;;
72053;SDS011;59918;51.280;7.950;2022-07-25T00:09:13;8.32;;;7.15;;
72053;SDS011;59918;51.280;7.950;2022-07-25T00:11:38;7.28;;;6.55;;
72053;SDS011;59918;51.280;7.950;2022-07-25T00:14:04;7.10;;;6.60;;
72053;SDS011;59918;51.280;7.950;2022-07-25T00:16:29;7.40;;;6.80;;
72053;SDS011;59918;51.280;7.950;2022-07-25T00:18:57;8.55;;;6.97;;
72053;SDS011;59918;51.280;7.950;2022-07-25T00:21:22;10.15;;;7.57;;
72053;SDS011;59918;51.280;7.950;2022-07-25T00:23:48;7.53;;;6.25;;
72053;SDS011;59918;51.280;7.950;2022-07-25T00:26:13;7.70;;;7.00;;
72053;SDS011;59918;51.280;7.950;2022-07-25T00:28:38;9.68;;;7.47;;
72053;SDS011;59918;51.280;7.950;2022-07-25T00:31:04;7.38;;;6.60;;
72053;SDS011;59918;51.280;7.950;2022-07-25T00:33:29;7.88;;;7.22;;
72053;SDS011;59918;51.280;7.950;2022-07-25T00:35:55;8.93;;;7.25;;
72053;SDS011;59918;51.280;7.950;2022-07-25T00:38:22;7.50;;;6.90;;
72053;SDS011;59918;51.280;7.950;2022-07-25T00:40:48;7.70;;;7.10;;
72053;SDS011;59918;51.280;7.950;2022-07-25T00:43:13;8.00;;;7.13;;
72053;SDS011;59918;51.280;7.950;2022-07-25T00:45:39;7.43;;;6.82;;
72053;SDS011;59918;51.280;7.950;2022-07-25T00:48:04;7.70;;;6.80;;
72053;SDS011;59918;51.280;7.950;2022-07-25T00:50:29;7.93;;;7.13;;
72053;SDS011;59918;51.280;7.950;2022-07-25T00:52:55;8.00;;;7.25;;
72053;SDS011;59918;51.280;7.950;2022-07-25T00:55:20;7.30;;;6.57;;
72053;SDS011;59918;51.280;7.950;2022-07-25T00:57:47;9.18;;;7.18;;
72053;SDS011;59918;51.280;7.950;2022-07-25T01:00:12;8.60;;;7.20;;
72053;SDS011;59918;51.280;7.950;2022-07-25T01:02:39;7.53;;;6.82;;
72053;SDS011;59918;51.280;7.950;2022-07-25T01:05:05;8.23;;;7.43;;
72053;SDS011;59918;51.280;7.950;2022-07-25T01:07:32;9.13;;;7.80;;
72053;SDS011;59918;51.280;7.950;2022-07-25T01:09:57;8.60;;;6.90;;
72053;SDS011;59918;51.280;7.950;2022-07-25T01:12:23;7.72;;;7.03;;
72053;SDS011;59918;51.280;7.950;2022-07-25T01:14:49;8.13;;;7.40;;
72053;SDS011;59918;51.280;7.950;2022-07-25T01:17:14;7.40;;;6.70;;
72053;SDS011;59918;51.280;7.950;2022-07-25T01:19:39;8.10;;;7.07;;
72053;SDS011;59918;51.280;7.950;2022-07-25T01:22:07;7.88;;;7.07;;
72053;SDS011;59918;51.280;7.950;2022-07-25T01:24:33;8.30;;;6.68;;
72053;SDS011;59918;51.280;7.950;2022-07-25T01:26:59;7.60;;;6.93;;
72053;SDS011;59918;51.280;7.950;2022-07-25T01:29:24;10.20;;;7.15;;
72053;SDS011;59918;51.280;7.950;2022-07-25T01:31:50;8.32;;;6.88;;
72053;SDS011;59918;51.280;7.950;2022-07-25T01:34:15;7.45;;;6.75;;
72053;SDS011;59918;51.280;7.950;2022-07-25T01:36:40;7.75;;;7.05;;
72053;SDS011;59918;51.280;7.950;2022-07-25T01:39:06;9.63;;;7.72;;
72053;SDS011;59918;51.280;7.950;2022-07-25T01:41:31;7.10;;;6.50;;
72053;SDS011;59918;51.280;7.950;2022-07-25T01:43:56;7.72;;;6.90;;
72053;SDS011;59918;51.280;7.950;2022-07-25T01:46:22;7.93;;;6.45;;
72053;SDS011;59918;51.280;7.950;2022-07-25T01:48:47;7.30;;;6.60;;
72053;SDS011;59918;51.280;7.950;2022-07-25T01:51:12;7.65;;;6.93;;
72053;SDS011;59918;51.280;7.950;2022-07-25T01:53:38;7.00;;;6.40;;
72053;SDS011;59918;51.280;7.950;2022-07-25T01:56:04;7.05;;;6.45;;
72053;SDS011;59918;51.280;7.950;2022-07-25T01:58:30;7.88;;;7.18;;
72053;SDS011;59918;51.280;7.950;2022-07-25T02:00:56;6.95;;;6.30;;
72053;SDS011;59918;51.280;7.950;2022-07-25T02:03:21;7.18;;;6.53;;
72053;SDS011;59918;51.280;7.950;2022-07-25T02:05:47;8.38;;;6.07;;
72053;SDS011;59918;51.280;7.950;2022-07-25T02:08:12;7.72;;;6.65;;
72053;SDS011;59918;51.280;7.950;2022-07-25T02:10:37;7.15;;;6.45;;
72053;SDS011;59918;51.280;7.950;2022-07-25T02:13:02;8.68;;;6.90;;
72053;SDS011;59918;51.280;7.950;2022-07-25T02:15:28;7.15;;;6.53;;
72053;SDS011;59918;51.280;7.950;2022-07-25T02:17:53;7.28;;;6.57;;
72053;SDS011;59918;51.280;7.950;2022-07-25T02:20:18;7.93;;;7.22;;
72053;SDS011;59918;51.280;7.950;2022-07-25T02:22:44;8.05;;;7.35;;
72053;SDS011;59918;51.280;7.950;2022-07-25T02:25:09;7.25;;;6.60;;
72053;SDS011;59918;51.280;7.950;2022-07-25T02:27:34;7.22;;;6.53;;
72053;SDS011;59918;51.280;7.950;2022-07-25T02:30:00;7.45;;;6.75;;
72053;SDS011;59918;51.280;7.950;2022-07-25T02:32:25;6.80;;;6.22;;
72053;SDS011;59918;51.280;7.950;2022-07-25T02:34:50;7.10;;;6.50;;
72053;SDS011;59918;51.280;7.950;2022-07-25T02:37:15;7.20;;;6.50;;
72053;SDS011;59918;51.280;7.950;2022-07-25T02:39:41;7.43;;;6.72;;
72053;SDS011;59918;51.280;7.950;2022-07-25T02:42:06;7.10;;;6.50;;
72053;SDS011;59918;51.280;7.950;2022-07-25T02:44:31;8.13;;;6.78;;
72053;SDS011;59918;51.280;7.950;2022-07-25T02:46:56;7.03;;;6.25;;
72053;SDS011;59918;51.280;7.950;2022-07-25T02:49:22;7.07;;;6.47;;
72053;SDS011;59918;51.280;7.950;2022-07-25T02:51:47;7.10;;;6.50;;
72053;SDS011;59918;51.280;7.950;2022-07-25T02:54:12;7.45;;;6.63;;
72053;SDS011;59918;51.280;7.950;2022-07-25T02:56:38;7.80;;;6.60;;
72053;SDS011;59918;51.280;7.950;2022-07-25T02:59:03;7.75;;;6.28;;
72053;SDS011;59918;51.280;7.950;2022-07-25T03:01:28;6.63;;;6.13;;
72053;SDS011;59918;51.280;7.950;2022-07-25T03:03:53;6.95;;;6.35;;
72053;SDS011;59918;51.280;7.950;2022-07-25T03:06:21;6.88;;;6.28;;
72053;SDS011;59918;51.280;7.950;2022-07-25T03:08:46;7.03;;;6.30;;
72053;SDS011;59918;51.280;7.950;2022-07-25T03:11:12;6.85;;;6.25;;
72053;SDS011;59918;51.280;7.950;2022-07-25T03:13:37;6.88;;;5.93;;
72053;SDS011;59918;51.280;7.950;2022-07-25T03:16:03;7.07;;;6.47;;
72053;SDS011;59918;51.280;7.950;2022-07-25T03:18:28;6.90;;;6.40;;
72053;SDS011;59918;51.280;7.950;2022-07-25T03:20:56;6.78;;;6.18;;
72053;SDS011;59918;51.280;7.950;2022-07-25T03:23:21;6.55;;;6.05;;
72053;SDS011;59918;51.280;7.950;2022-07-25T03:25:46;6.80;;;6.20;;
72053;SDS011;59918;51.280;7.950;2022-07-25T03:28:11;6.97;;;6.38;;
72053;SDS011;59918;51.280;7.950;2022-07-25T03:30:37;6.88;;;6.25;;
72053;SDS011;59918;51.280;7.950;2022-07-25T03:33:02;6.90;;;6.30;;
72053;SDS011;59918;51.280;7.950;2022-07-25T03:35:27;7.63;;;5.80;;
72053;SDS011;59918;51.280;7.950;2022-07-25T03:37:53;6.60;;;5.95;;
72053;SDS011;59918;51.280;7.950;2022-07-25T03:40:18;6.35;;;5.72;;
72053;SDS011;59918;51.280;7.950;2022-07-25T03:42:46;7.32;;;6.72;;
72053;SDS011;59918;51.280;7.950;2022-07-25T03:45:11;9.70;;;5.70;;
72053;SDS011;59918;51.280;7.950;2022-07-25T03:47:36;6.63;;;6.07;;
72053;SDS011;59918;51.280;7.950;2022-07-25T03:50:02;7.10;;;5.85;;
72053;SDS011;59918;51.280;7.950;2022-07-25T03:52:28;9.10;;;6.10;;
72053;SDS011;59918;51.280;7.950;2022-07-25T03:54:53;6.88;;;6.18;;
72053;SDS011;59918;51.280;7.950;2022-07-25T03:57:18;6.45;;;5.85;;
72053;SDS011;59918;51.280;7.950;2022-07-25T03:59:43;6.72;;;6.15;;
72053;SDS011;59918;51.280;7.950;2022-07-25T04:02:09;7.00;;;6.38;;
72053;SDS011;59918;51.280;7.950;2022-07-25T04:04:36;6.40;;;5.80;;
72053;SDS011;59918;51.280;7.950;2022-07-25T04:07:02;6.85;;;6.15;;
72053;SDS011;59918;51.280;7.950;2022-07-25T04:09:27;6.63;;;6.03;;
72053;SDS011;59918;51.280;7.950;2022-07-25T04:11:52;6.15;;;5.55;;
72053;SDS011;59918;51.280;7.950;2022-07-25T04:14:17;6.50;;;6.00;;
72053;SDS011;59918;51.280;7.950;2022-07-25T04:16:43;6.88;;;6.00;;
72053;SDS011;59918;51.280;7.950;2022-07-25T04:19:08;7.05;;;6.35;;
72053;SDS011;59918;51.280;7.950;2022-07-25T04:21:33;6.88;;;6.28;;
72053;SDS011;59918;51.280;7.950;2022-07-25T04:23:58;7.22;;;5.72;;
72053;SDS011;59918;51.280;7.950;2022-07-25T04:26:24;6.25;;;5.75;;
72053;SDS011;59918;51.280;7.950;2022-07-25T04:28:49;6.93;;;6.10;;
72053;SDS011;59918;51.280;7.950;2022-07-25T04:31:15;8.50;;;6.30;;
72053;SDS011;59918;51.280;7.950;2022-07-25T04:33:40;7.20;;;6.57;;
72053;SDS011;59918;51.280;7.950;2022-07-25T04:36:06;7.03;;;6.45;;
72053;SDS011;59918;51.280;7.950;2022-07-25T04:38:32;7.07;;;6.47;;
72053;SDS011;59918;51.280;7.950;2022-07-25T04:40:57;7.15;;;6.53;;
72053;SDS011;59918;51.280;7.950;2022-07-25T04:43:23;7.07;;;6.38;;
72053;SDS011;59918;51.280;7.950;2022-07-25T04:45:48;7.45;;;6.65;;
72053;SDS011;59918;51.280;7.950;2022-07-25T04:48:13;6.72;;;6.13;;
72053;SDS011;59918;51.280;7.950;2022-07-25T04:50:39;7.78;;;6.07;;
72053;SDS011;59918;51.280;7.950;2022-07-25T04:53:04;6.80;;;6.00;;
72053;SDS011;59918;51.280;7.950;2022-07-25T04:55:30;8.25;;;6.25;;
72053;SDS011;59918;51.280;7.950;2022-07-25T04:57:55;6.68;;;6.07;;
72053;SDS011;59918;51.280;7.950;2022-07-25T05:00:20;8.30;;;6.72;;
72053;SDS011;59918;51.280;7.950;2022-07-25T05:02:45;7.57;;;6.03;;
72053;SDS011;59918;51.280;7.950;2022-07-25T05:05:11;7.72;;;6.53;;
72053;SDS011;59918;51.280;7.950;2022-07-25T05:07:36;7.47;;;6.50;;
72053;SDS011;59918;51.280;7.950;2022-07-25T05:10:04;6.78;;;6.18;;
72053;SDS011;59918;51.280;7.950;2022-07-25T05:12:29;6.63;;;6.05;;
72053;SDS011;59918;51.280;7.950;2022-07-25T05:14:55;6.93;;;6.32;;
72053;SDS011;59918;51.280;7.950;2022-07-25T05:17:20;6.55;;;6.03;;
72053;SDS011;59918;51.280;7.950;2022-07-25T05:19:45;6.38;;;5.78;;
72053;SDS011;59918;51.280;7.950;2022-07-25T05:22:11;6.57;;;6.07;;
72053;SDS011;59918;51.280;7.950;2022-07-25T05:24:36;6.93;;;6.32;;
72053;SDS011;59918;51.280;7.950;2022-07-25T05:27:04;6.43;;;5.82;;
72053;SDS011;59918;51.280;7.950;2022-07-25T05:29:30;8.00;;;6.15;;
72053;SDS011;59918;51.280;7.950;2022-07-25T05:31:55;7.03;;;6.50;;
72053;SDS011;59918;51.280;7.950;2022-07-25T05:34:21;6.60;;;6.00;;
72053;SDS011;59918;51.280;7.950;2022-07-25T05:36:46;7.68;;;6.13;;
72053;SDS011;59918;51.280;7.950;2022-07-25T05:39:11;6.38;;;5.78;;
72053;SDS011;59918;51.280;7.950;2022-07-25T05:41:37;7.10;;;6.40;;
72053;SDS011;59918;51.280;7.950;2022-07-25T05:44:02;8.63;;;6.30;;
72053;SDS011;59918;51.280;7.950;2022-07-25T05:46:28;6.35;;;5.85;;
72053;SDS011;59918;51.280;7.950;2022-07-25T05:48:56;7.13;;;6.43;;
72053;SDS011;59918;51.280;7.950;2022-07-25T05:51:21;6.60;;;6.10;;
72053;SDS011;59918;51.280;7.950;2022-07-25T05:53:46;6.13;;;5.63;;
72053;SDS011;59918;51.280;7.950;2022-07-25T05:56:12;6.70;;;6.20;;
72053;SDS011;59918;51.280;7.950;2022-07-25T05:58:37;6.70;;;6.10;;
72053;SDS011;59918;51.280;7.950;2022-07-25T06:01:02;6.78;;;6.18;;
72053;SDS011;59918;51.280;7.950;2022-07-25T06:03:28;9.07;;;6.32;;
72053;SDS011;59918;51.280;7.950;2022-07-25T06:05:55;6.60;;;5.97;;
72053;SDS011;59918;51.280;7.950;2022-07-25T06:08:20;6.97;;;6.38;;
72053;SDS011;59918;51.280;7.950;2022-07-25T06:10:46;6.80;;;6.30;;
72053;SDS011;59918;51.280;7.950;2022-07-25T06:13:13;6.57;;;5.80;;
72053;SDS011;59918;51.280;7.950;2022-07-25T06:15:39;6.70;;;6.07;;
72053;SDS011;59918;51.280;7.950;2022-07-25T06:18:04;7.82;;;6.82;;
72053;SDS011;59918;51.280;7.950;2022-07-25T06:20:32;7.07;;;6.38;;
72053;SDS011;59918;51.280;7.950;2022-07-25T06:22:57;7.05;;;6.43;;
72053;SDS011;59918;51.280;7.950;2022-07-25T06:25:22;6.80;;;6.30;;
72053;SDS011;59918;51.280;7.950;2022-07-25T06:27:48;7.65;;;6.95;;
72053;SDS011;59918;51.280;7.950;2022-07-25T06:30:13;7.07;;;6.50;;
72053;SDS011;59918;51.280;7.950;2022-07-25T06:32:38;6.75;;;6.10;;
72053;SDS011;59918;51.280;7.950;2022-07-25T06:35:04;7.18;;;6.63;;
72053;SDS011;59918;51.280;7.950;2022-07-25T06:37:29;6.32;;;5.82;;
72053;SDS011;59918;51.280;7.950;2022-07-25T06:40:00;6.50;;;6.00;;
72053;SDS011;59918;51.280;7.950;2022-07-25T06:42:25;7.28;;;6.63;;
72053;SDS011;59918;51.280;7.950;2022-07-25T06:44:52;7.80;;;6.70;;
72053;SDS011;59918;51.280;7.950;2022-07-25T06:47:18;6.95;;;6.45;;
72053;SDS011;59918;51.280;7.950;2022-07-25T06:49:43;6.65;;;6.15;;
72053;SDS011;59918;51.280;7.950;2022-07-25T06:52:08;6.97;;;6.38;;
72053;SDS011;59918;51.280;7.950;2022-07-25T06:54:34;6.47;;;5.93;;
72053;SDS011;59918;51.280;7.950;2022-07-25T06:56:59;7.63;;;6.78;;
72053;SDS011;59918;51.280;7.950;2022-07-25T06:59:24;6.72;;;6.18;;
72053;SDS011;59918;51.280;7.950;2022-07-25T07:01:52;6.88;;;6.38;;
72053;SDS011;59918;51.280;7.950;2022-07-25T07:04:17;7.53;;;6.50;;
72053;SDS011;59918;51.280;7.950;2022-07-25T07:06:43;7.18;;;6.57;;
72053;SDS011;59918;51.280;7.950;2022-07-25T07:09:08;7.35;;;6.72;;
72053;SDS011;59918;51.280;7.950;2022-07-25T07:11:34;6.70;;;6.20;;
72053;SDS011;59918;51.280;7.950;2022-07-25T07:14:02;7.38;;;6.55;;
72053;SDS011;59918;51.280;7.950;2022-07-25T07:16:28;7.20;;;6.70;;
72053;SDS011;59918;51.280;7.950;2022-07-25T07:18:54;7.10;;;6.50;;
72053;SDS011;59918;51.280;7.950;2022-07-25T07:21:19;7.00;;;6.50;;
72053;SDS011;59918;51.280;7.950;2022-07-25T07:23:45;7.57;;;6.82;;
72053;SDS011;59918;51.280;7.950;2022-07-25T07:26:10;7.40;;;6.72;;
72053;SDS011;59918;51.280;7.950;2022-07-25T07:28:35;7.22;;;6.47;;
72053;SDS011;59918;51.280;7.950;2022-07-25T07:31:01;7.28;;;6.68;;
72053;SDS011;59918;51.280;7.950;2022-07-25T07:33:26;7.35;;;6.75;;
72053;SDS011;59918;51.280;7.950;2022-07-25T07:35:51;7.35;;;6.85;;
72053;SDS011;59918;51.280;7.950;2022-07-25T07:38:16;7.90;;;7.07;;
72053;SDS011;59918;51.280;7.950;2022-07-25T07:40:42;7.38;;;6.88;;
72053;SDS011;59918;51.280;7.950;2022-07-25T07:43:07;7.65;;;7.05;;
72053;SDS011;59918;51.280;7.950;2022-07-25T07:45:32;7.63;;;7.03;;
72053;SDS011;59918;51.280;7.950;2022-07-25T07:47:58;7.65;;;7.05;;
72053;SDS011;59918;51.280;7.950;2022-07-25T07:50:23;7.85;;;7.15;;
72053;SDS011;59918;51.280;7.950;2022-07-25T07:52:51;7.70;;;7.15;;
72053;SDS011;59918;51.280;7.950;2022-07-25T07:55:36;7.45;;;6.88;;
72053;SDS011;59918;51.280;7.950;2022-07-25T07:58:02;8.15;;;7.45;;
72053;SDS011;59918;51.280;7.950;2022-07-25T08:00:28;7.22;;;6.63;;
72053;SDS011;59918;51.280;7.950;2022-07-25T08:02:54;7.93;;;7.22;;
72053;SDS011;59918;51.280;7.950;2022-07-25T08:05:23;7.82;;;7.13;;
72053;SDS011;59918;51.280;7.950;2022-07-25T08:07:50;12.15;;;7.13;;
72053;SDS011;59918;51.280;7.950;2022-07-25T08:10:21;7.95;;;7.35;;
72053;SDS011;59918;51.280;7.950;2022-07-25T08:12:47;7.90;;;7.25;;
72053;SDS011;59918;51.280;7.950;2022-07-25T08:15:12;7.63;;;6.93;;
72053;SDS011;59918;51.280;7.950;2022-07-25T08:17:38;8.05;;;6.93;;
72053;SDS011;59918;51.280;7.950;2022-07-25T08:20:03;7.90;;;7.10;;
72053;SDS011;59918;51.280;7.950;2022-07-25T08:22:39;7.70;;;7.10;;
72053;SDS011;59918;51.280;7.950;2022-07-25T08:25:07;7.25;;;6.72;;
72053;SDS011;59918;51.280;7.950;2022-07-25T08:27:44;6.82;;;6.25;;
72053;SDS011;59918;51.280;7.950;2022-07-25T08:30:11;7.55;;;6.85;;
72053;SDS011;59918;51.280;7.950;2022-07-25T08:32:47;8.02;;;6.43;;
72053;SDS011;59918;51.280;7.950;2022-07-25T08:35:16;7.30;;;6.70;;
72053;SDS011;59918;51.280;7.950;2022-07-25T08:37:42;7.80;;;7.10;;
72053;SDS011;59918;51.280;7.950;2022-07-25T08:40:07;8.10;;;7.30;;
72053;SDS011;59918;51.280;7.950;2022-07-25T08:42:33;8.00;;;6.75;;
72053;SDS011;59918;51.280;7.950;2022-07-25T08:44:59;6.68;;;6.07;;
72053;SDS011;59918;51.280;7.950;2022-07-25T08:47:28;7.00;;;6.40;;
72053;SDS011;59918;51.280;7.950;2022-07-25T08:49:54;7.55;;;6.70;;
72053;SDS011;59918;51.280;7.950;2022-07-25T08:52:19;7.35;;;6.65;;
72053;SDS011;59918;51.280;7.950;2022-07-25T08:54:46;7.07;;;6.47;;
72053;SDS011;59918;51.280;7.950;2022-07-25T08:57:12;6.55;;;6.00;;
72053;SDS011;59918;51.280;7.950;2022-07-25T08:59:40;6.78;;;6.28;;
72053;SDS011;59918;51.280;7.950;2022-07-25T09:02:06;6.85;;;6.32;;
72053;SDS011;59918;51.280;7.950;2022-07-25T09:04:32;6.68;;;6.22;;
72053;SDS011;59918;51.280;7.950;2022-07-25T09:06:58;7.22;;;6.70;;
72053;SDS011;59918;51.280;7.950;2022-07-25T09:09:30;6.85;;;6.20;;
72053;SDS011;59918;51.280;7.950;2022-07-25T09:11:57;6.78;;;6.22;;
72053;SDS011;59918;51.280;7.950;2022-07-25T09:14:24;7.20;;;6.60;;
72053;SDS011;59918;51.280;7.950;2022-07-25T09:16:49;6.60;;;6.10;;
72053;SDS011;59918;51.280;7.950;2022-07-25T09:19:19;7.15;;;6.50;;
72053;SDS011;59918;51.280;7.950;2022-07-25T09:21:56;6.80;;;6.15;;
72053;SDS011;59918;51.280;7.950;2022-07-25T09:24:26;7.28;;;6.55;;
72053;SDS011;59918;51.280;7.950;2022-07-25T09:26:52;6.53;;;6.13;;
72053;SDS011;59918;51.280;7.950;2022-07-25T09:29:21;7.53;;;6.93;;
72053;SDS011;59918;51.280;7.950;2022-07-25T09:31:48;6.18;;;5.68;;
72053;SDS011;59918;51.280;7.950;2022-07-25T09:34:27;7.32;;;6.03;;
72053;SDS011;59918;51.280;7.950;2022-07-25T09:37:04;7.20;;;6.60;;
72053;SDS011;59918;51.280;7.950;2022-07-25T09:39:32;7.13;;;6.43;;
72053;SDS011;59918;51.280;7.950;2022-07-25T09:44:42;6.30;;;5.80;;
72053;SDS011;59918;51.280;7.950;2022-07-25T09:47:12;6.40;;;5.88;;
72053;SDS011;59918;51.280;7.950;2022-07-25T09:49:42;6.80;;;6.20;;
72053;SDS011;59918;51.280;7.950;2022-07-25T09:52:11;5.82;;;5.43;;
72053;SDS011;59918;51.280;7.950;2022-07-25T09:54:37;6.18;;;5.68;;
72053;SDS011;59918;51.280;7.950;2022-07-25T09:57:03;7.65;;;6.95;;
72053;SDS011;59918;51.280;7.950;2022-07-25T09:59:29;6.28;;;5.80;;
72053;SDS011;59918;51.280;7.950;2022-07-25T10:01:56;6.45;;;5.90;;
72053;SDS011;59918;51.280;7.950;2022-07-25T10:07:14;5.85;;;5.47;;
72053;SDS011;59918;51.280;7.950;2022-07-25T10:09:45;6.75;;;6.13;;
72053;SDS011;59918;51.280;7.950;2022-07-25T10:12:18;7.38;;;6.00;;
72053;SDS011;59918;51.280;7.950;2022-07-25T10:15:02;5.80;;;5.40;;
72053;SDS011;59918;51.280;7.950;2022-07-25T10:17:27;7.00;;;6.00;;
72053;SDS011;59918;51.280;7.950;2022-07-25T10:19:53;7.88;;;5.57;;
72053;SDS011;59918;51.280;7.950;2022-07-25T10:22:18;6.13;;;5.72;;
72053;SDS011;59918;51.280;7.950;2022-07-25T10:24:44;6.65;;;6.13;;
72053;SDS011;59918;51.280;7.950;2022-07-25T10:27:16;6.57;;;6.07;;
72053;SDS011;59918;51.280;7.950;2022-07-25T10:29:49;7.38;;;6.03;;
72053;SDS011;59918;51.280;7.950;2022-07-25T10:32:18;6.22;;;5.78;;
72053;SDS011;59918;51.280;7.950;2022-07-25T10:34:53;7.90;;;5.50;;
72053;SDS011;59918;51.280;7.950;2022-07-25T10:37:18;6.90;;;5.75;;
72053;SDS011;59918;51.280;7.950;2022-07-25T10:39:51;5.80;;;5.40;;
72053;SDS011;59918;51.280;7.950;2022-07-25T10:42:19;6.25;;;5.75;;
72053;SDS011;59918;51.280;7.950;2022-07-25T10:44:47;6.13;;;5.63;;
72053;SDS011;59918;51.280;7.950;2022-07-25T10:47:21;6.22;;;5.80;;
72053;SDS011;59918;51.280;7.950;2022-07-25T10:49:47;12.68;;;6.20;;
72053;SDS011;59918;51.280;7.950;2022-07-25T10:52:16;6.72;;;6.05;;
72053;SDS011;59918;51.280;7.950;2022-07-25T10:54:54;7.40;;;5.72;;
72053;SDS011;59918;51.280;7.950;2022-07-25T10:57:21;8.65;;;5.95;;
72053;SDS011;59918;51.280;7.950;2022-07-25T10:59:46;6.38;;;5.78;;
72053;SDS011;59918;51.280;7.950;2022-07-25T11:02:12;6.53;;;6.13;;
72053;SDS011;59918;51.280;7.950;2022-07-25T11:04:38;6.70;;;6.20;;
72053;SDS011;59918;51.280;7.950;2022-07-25T11:07:10;6.10;;;5.70;;
72053;SDS011;59918;51.280;7.950;2022-07-25T11:09:40;6.43;;;5.82;;
72053;SDS011;59918;51.280;7.950;2022-07-25T11:12:07;6.28;;;5.78;;
72053;SDS011;59918;51.280;7.950;2022-07-25T11:14:34;7.45;;;5.82;;
72053;SDS011;59918;51.280;7.950;2022-07-25T11:19:36;7.38;;;6.65;;
72053;SDS011;59918;51.280;7.950;2022-07-25T11:22:02;7.05;;;6.47;;
72053;SDS011;59918;51.280;7.950;2022-07-25T11:24:34;6.78;;;6.18;;
72053;SDS011;59918;51.280;7.950;2022-07-25T11:27:10;7.60;;;7.00;;
72053;SDS011;59918;51.280;7.950;2022-07-25T11:29:37;7.97;;;6.13;;
72053;SDS011;59918;51.280;7.950;2022-07-25T11:32:04;8.50;;;7.05;;
72053;SDS011;59918;51.280;7.950;2022-07-25T11:34:32;10.43;;;7.18;;
72053;SDS011;59918;51.280;7.950;2022-07-25T11:37:01;7.40;;;6.57;;
72053;SDS011;59918;51.280;7.950;2022-07-25T11:39:28;7.32;;;6.72;;
72053;SDS011;59918;51.280;7.950;2022-07-25T11:44:56;7.35;;;6.78;;
72053;SDS011;59918;51.280;7.950;2022-07-25T11:49:49;7.20;;;6.57;;
72053;SDS011;59918;51.280;7.950;2022-07-25T11:52:22;7.40;;;6.85;;
72053;SDS011;59918;51.280;7.950;2022-07-25T11:54:59;10.38;;;7.30;;
72053;SDS011;59918;51.280;7.950;2022-07-25T11:57:27;7.35;;;6.72;;
72053;SDS011;59918;51.280;7.950;2022-07-25T11:59:56;7.38;;;6.38;;
72053;SDS011;59918;51.280;7.950;2022-07-25T12:02:26;7.13;;;6.53;;
72053;SDS011;59918;51.280;7.950;2022-07-25T12:05:02;7.18;;;6.68;;
72053;SDS011;59918;51.280;7.950;2022-07-25T12:10:31;6.50;;;5.93;;
72053;SDS011;59918;51.280;7.950;2022-07-25T12:12:56;7.18;;;6.68;;
72053;SDS011;59918;51.280;7.950;2022-07-25T12:15:27;7.03;;;6.30;;
72053;SDS011;59918;51.280;7.950;2022-07-25T12:17:54;7.10;;;6.50;;
72053;SDS011;59918;51.280;7.950;2022-07-25T12:20:25;6.72;;;6.13;;
72053;SDS011;59918;51.280;7.950;2022-07-25T12:22:53;7.90;;;6.05;;
72053;SDS011;59918;51.280;7.950;2022-07-25T12:25:20;7.05;;;6.25;;
72053;SDS011;59918;51.280;7.950;2022-07-25T12:27:45;6.88;;;5.28;;
72053;SDS011;59918;51.280;7.950;2022-07-25T12:30:11;5.70;;;5.20;;
72053;SDS011;59918;51.280;7.950;2022-07-25T12:32:37;5.15;;;4.75;;
72053;SDS011;59918;51.280;7.950;2022-07-25T12:35:03;9.10;;;5.80;;
72053;SDS011;59918;51.280;7.950;2022-07-25T12:37:30;5.47;;;4.97;;
72053;SDS011;59918;51.280;7.950;2022-07-25T12:39:56;5.90;;;5.40;;
72053;SDS011;59918;51.280;7.950;2022-07-25T12:42:22;5.35;;;4.85;;
72053;SDS011;59918;51.280;7.950;2022-07-25T12:44:47;5.55;;;5.05;;
72053;SDS011;59918;51.280;7.950;2022-07-25T12:47:12;6.03;;;5.43;;
72053;SDS011;59918;51.280;7.950;2022-07-25T12:49:38;5.07;;;4.70;;
72053;SDS011;59918;51.280;7.950;2022-07-25T12:52:03;5.13;;;4.63;;
72053;SDS011;59918;51.280;7.950;2022-07-25T12:54:28;5.38;;;4.97;;
72053;SDS011;59918;51.280;7.950;2022-07-25T12:56:54;5.03;;;4.63;;
72053;SDS011;59918;51.280;7.950;2022-07-25T12:59:19;5.30;;;4.90;;
72053;SDS011;59918;51.280;7.950;2022-07-25T13:01:44;5.63;;;5.13;;
72053;SDS011;59918;51.280;7.950;2022-07-25T13:04:10;5.80;;;5.40;;
72053;SDS011;59918;51.280;7.950;2022-07-25T13:06:35;5.65;;;5.25;;
72053;SDS011;59918;51.280;7.950;2022-07-25T13:09:01;5.75;;;5.35;;
72053;SDS011;59918;51.280;7.950;2022-07-25T13:11:27;5.85;;;5.32;;
72053;SDS011;59918;51.280;7.950;2022-07-25T13:13:52;8.95;;;5.55;;
72053;SDS011;59918;51.280;7.950;2022-07-25T13:16:18;5.97;;;5.13;;
72053;SDS011;59918;51.280;7.950;2022-07-25T13:18:43;6.70;;;6.10;;
72053;SDS011;59918;51.280;7.950;2022-07-25T13:21:08;6.40;;;5.40;;
72053;SDS011;59918;51.280;7.950;2022-07-25T13:23:34;7.32;;;5.82;;
72053;SDS011;59918;51.280;7.950;2022-07-25T13:26:00;6.18;;;5.68;;
72053;SDS011;59918;51.280;7.950;2022-07-25T13:28:25;6.18;;;5.68;;
72053;SDS011;59918;51.280;7.950;2022-07-25T13:30:51;6.00;;;5.55;;
72053;SDS011;59918;51.280;7.950;2022-07-25T13:33:16;5.50;;;5.10;;
72053;SDS011;59918;51.280;7.950;2022-07-25T13:35:41;5.45;;;4.93;;
72053;SDS011;59918;51.280;7.950;2022-07-25T13:38:08;6.28;;;5.68;;
72053;SDS011;59918;51.280;7.950;2022-07-25T13:40:34;6.22;;;5.70;;
72053;SDS011;59918;51.280;7.950;2022-07-25T13:42:59;6.70;;;5.60;;
72053;SDS011;59918;51.280;7.950;2022-07-25T13:45:24;6.00;;;5.40;;
72053;SDS011;59918;51.280;7.950;2022-07-25T13:47:50;6.78;;;6.32;;
72053;SDS011;59918;51.280;7.950;2022-07-25T13:50:15;9.50;;;6.20;;
72053;SDS011;59918;51.280;7.950;2022-07-25T13:52:40;7.60;;;6.90;;
72053;SDS011;59918;51.280;7.950;2022-07-25T13:55:08;6.93;;;6.40;;
72053;SDS011;59918;51.280;7.950;2022-07-25T13:57:33;7.97;;;7.28;;
72053;SDS011;59918;51.280;7.950;2022-07-25T13:59:59;7.63;;;6.95;;
72053;SDS011;59918;51.280;7.950;2022-07-25T14:02:24;7.50;;;6.90;;
72053;SDS011;59918;51.280;7.950;2022-07-25T14:04:49;7.10;;;6.43;;
72053;SDS011;59918;51.280;7.950;2022-07-25T14:07:14;6.90;;;6.40;;
72053;SDS011;59918;51.280;7.950;2022-07-25T14:09:40;7.60;;;6.85;;
72053;SDS011;59918;51.280;7.950;2022-07-25T14:12:05;6.83;;;6.13;;
72053;SDS011;59918;51.280;7.950;2022-07-25T14:14:32;7.85;;;7.10;;
72053;SDS011;59918;51.280;7.950;2022-07-25T14:16:57;6.82;;;6.32;;
72053;SDS011;59918;51.280;7.950;2022-07-25T14:19:22;8.57;;;6.80;;
72053;SDS011;59918;51.280;7.950;2022-07-25T14:21:47;7.25;;;6.32;;
72053;SDS011;59918;51.280;7.950;2022-07-25T14:24:15;6.43;;;5.85;;
72053;SDS011;59918;51.280;7.950;2022-07-25T14:26:43;6.05;;;5.55;;
72053;SDS011;59918;51.280;7.950;2022-07-25T14:29:08;8.98;;;5.65;;
72053;SDS011;59918;51.280;7.950;2022-07-25T14:31:33;5.82;;;5.20;;
72053;SDS011;59918;51.280;7.950;2022-07-25T14:33:59;4.83;;;4.40;;
72053;SDS011;59918;51.280;7.950;2022-07-25T14:36:24;6.50;;;5.00;;
72053;SDS011;59918;51.280;7.950;2022-07-25T14:38:49;6.80;;;5.33;;
72053;SDS011;59918;51.280;7.950;2022-07-25T14:41:16;5.33;;;4.83;;
72053;SDS011;59918;51.280;7.950;2022-07-25T14:43:42;6.30;;;5.63;;
72053;SDS011;59918;51.280;7.950;2022-07-25T14:46:07;5.53;;;5.10;;
72053;SDS011;59918;51.280;7.950;2022-07-25T14:48:34;5.18;;;4.75;;
72053;SDS011;59918;51.280;7.950;2022-07-25T14:51:04;5.40;;;5.00;;
72053;SDS011;59918;51.280;7.950;2022-07-25T14:53:30;5.07;;;4.50;;
72053;SDS011;59918;51.280;7.950;2022-07-25T14:55:55;5.18;;;4.35;;
72053;SDS011;59918;51.280;7.950;2022-07-25T14:58:21;7.23;;;4.33;;
72053;SDS011;59918;51.280;7.950;2022-07-25T15:00:46;4.57;;;4.18;;